Time;durP1;ratioP1;P1;durP2;ratioP2;P2;SDS_P1;SDS_P2;PMS_P1;PMS_P2;Temp;Humidity;BMP_temperature;BMP_pressure;BME280_temperature;BME280_humidity;BME280_pressure;Samples;Min_cycle;Max_cycle;Signal;HPM_P1;HPM_P2
2022/03/06 00:02:07;;;;;;;33.25;20.95;;;;;;;1.61;83.45;94849.00;5078760;28;20024;-83
2022/03/06 00:04:33;;;;;;;32.72;20.48;;;;;;;2.06;83.99;94917.28;5078115;28;20048;-84
2022/03/06 00:06:58;;;;;;;31.33;20.02;;;;;;;0.73;84.04;94711.34;5078769;28;20032;-83
2022/03/06 00:09:24;;;;;;;31.45;19.95;;;;;;;1.88;84.14;94912.16;5060304;28;20047;-83
2022/03/06 00:11:50;;;;;;;30.23;19.50;;;;;;;0.56;84.18;94709.59;5078111;28;20112;-83
2022/03/06 00:14:16;;;;;;;31.02;18.67;;;;;;;0.87;85.01;94763.34;5077683;28;20044;-84
2022/03/06 00:16:41;;;;;;;30.27;19.77;;;;;;;-0.88;85.28;94517.63;5076962;28;20064;-84
2022/03/06 00:19:07;;;;;;;29.17;18.45;;;;;;;1.10;85.33;94833.91;5076230;28;20020;-83
2022/03/06 00:21:34;;;;;;;30.85;18.65;;;;;;;0.36;84.92;94676.75;5078555;28;20094;-83
2022/03/06 00:24:00;;;;;;;28.83;18.05;;;;;;;1.03;84.98;94810.53;5078066;28;20370;-84
2022/03/06 00:26:25;;;;;;;26.15;15.45;;;;;;;0.90;85.15;94808.09;5076015;28;20032;-84
2022/03/06 00:28:51;;;;;;;24.10;14.55;;;;;;;1.45;84.80;94852.31;5059884;28;20051;-84
2022/03/06 00:31:16;;;;;;;22.10;14.27;;;;;;;1.30;84.63;94829.19;5078675;28;20063;-84
2022/03/06 00:33:42;;;;;;;21.23;13.25;;;;;;;1.94;84.31;94901.59;5076879;28;20028;-83
2022/03/06 00:36:07;;;;;;;18.27;11.68;;;;;;;1.38;84.08;94835.91;5076913;28;20426;-83
2022/03/06 00:38:33;;;;;;;24.45;12.10;;;;;;;1.66;84.33;94875.28;5059911;28;20036;-83
2022/03/06 00:40:58;;;;;;;16.75;11.18;;;;;;;0.97;84.04;94781.91;5059041;28;20036;-84
2022/03/06 00:43:24;;;;;;;17.27;11.00;;;;;;;1.69;84.32;94902.78;5059722;28;20480;-84
2022/03/06 00:45:49;;;;;;;16.05;10.77;;;;;;;1.47;84.61;94863.31;5060177;28;20522;-84
2022/03/06 00:48:15;;;;;;;18.10;11.00;;;;;;;1.08;84.57;94809.84;5077900;28;20033;-83
2022/03/06 00:51:00;;;;;;;17.99;11.64;;;;;;;1.17;84.74;94816.34;4609915;28;10001346;-83
2022/03/06 00:53:25;;;;;;;18.40;11.32;;;;;;;0.97;84.12;94779.28;1391017;28;10002023;-83
2022/03/06 00:55:51;;;;;;;19.92;11.85;;;;;;;1.28;83.99;94840.91;5057605;28;20822;-83
2022/03/06 00:58:17;;;;;;;18.48;11.10;;;;;;;1.02;84.22;94788.03;5057967;28;20101;-83
2022/03/06 01:00:46;;;;;;;18.95;12.18;;;;;;;1.55;84.47;94882.09;5057915;28;20029;-83
2022/03/06 01:03:15;;;;;;;20.92;13.20;;;;;;;0.73;84.30;94745.28;5056987;28;20384;-83
2022/03/06 01:05:41;;;;;;;21.25;13.55;;;;;;;1.55;84.83;94873.44;5056536;28;20048;-81
2022/03/06 01:08:08;;;;;;;21.65;14.45;;;;;;;1.41;84.51;94851.94;5039278;28;20465;-83
2022/03/06 01:10:35;;;;;;;23.10;14.23;;;;;;;0.98;84.94;94796.53;5038908;28;20033;-82
2022/03/06 01:13:01;;;;;;;25.90;14.95;;;;;;;1.47;84.97;94866.72;5039586;28;20037;-82
2022/03/06 01:15:27;;;;;;;29.83;16.05;;;;;;;1.01;85.30;94806.53;5057049;28;20037;-83
2022/03/06 01:17:53;;;;;;;27.80;16.67;;;;;;;0.93;84.55;94770.28;5057943;28;20043;-83
2022/03/06 01:20:19;;;;;;;27.08;15.90;;;;;;;0.25;85.00;94684.53;5057171;28;20033;-82
2022/03/06 01:22:46;;;;;;;24.70;15.55;;;;;;;1.13;84.68;94831.69;5057138;28;20036;-83
2022/03/06 01:25:11;;;;;;;25.65;16.02;;;;;;;0.80;84.64;94793.97;5039130;28;20060;-83
2022/03/06 01:27:37;;;;;;;24.30;15.27;;;;;;;1.32;85.46;94892.47;5038994;28;20036;-82
2022/03/06 01:30:05;;;;;;;24.70;16.00;;;;;;;-0.73;85.52;94558.91;5038457;28;20047;-83
2022/03/06 01:32:32;;;;;;;23.88;16.55;;;;;;;0.78;85.37;94781.16;5056601;28;20029;-83
2022/03/06 01:34:58;;;;;;;24.70;16.95;;;;;;;1.37;85.25;94870.94;5056080;28;20052;-83
2022/03/06 01:37:24;;;;;;;27.23;17.10;;;;;;;1.27;85.58;94874.06;5037819;28;20037;-83
2022/03/06 01:39:50;;;;;;;28.65;17.52;;;;;;;1.01;85.43;94814.34;5037460;28;20104;-82
2022/03/06 01:42:15;;;;;;;27.63;17.98;;;;;;;-0.23;84.98;94607.16;5056257;28;20064;-82
2022/03/06 01:44:44;;;;;;;31.80;17.80;;;;;;;0.71;85.03;94749.13;5056223;28;20028;-83
2022/03/06 01:47:10;;;;;;;31.13;19.27;;;;;;;0.68;85.37;94736.53;5056514;28;20044;-84
2022/03/06 01:49:35;;;;;;;31.88;19.30;;;;;;;0.13;85.61;94676.69;5038336;28;20041;-83
2022/03/06 01:52:01;;;;;;;30.98;18.90;;;;;;;1.45;85.56;94853.09;5038914;28;20590;-83
2022/03/06 01:54:26;;;;;;;30.02;18.67;;;;;;;1.53;85.02;94855.38;5056655;28;20037;-83
2022/03/06 01:56:52;;;;;;;36.88;21.27;;;;;;;0.50;85.14;94690.41;5055706;28;20036;-82
2022/03/06 01:59:18;;;;;;;33.05;21.00;;;;;;;1.44;84.95;94822.78;5056296;28;20097;-83
2022/03/06 02:01:44;;;;;;;34.85;20.13;;;;;;;0.07;84.47;94642.88;5038709;28;20145;-82
2022/03/06 02:04:09;;;;;;;33.28;20.23;;;;;;;1.47;84.47;94801.41;5054546;28;20039;-83
2022/03/06 02:06:37;;;;;;;35.88;20.90;;;;;;;1.11;84.65;94765.00;5055893;28;20064;-82
2022/03/06 02:09:02;;;;;;;33.38;20.08;;;;;;;1.08;84.97;94760.22;5055787;28;20036;-82
2022/03/06 02:11:28;;;;;;;34.22;20.75;;;;;;;1.36;84.52;94794.34;5038522;28;20423;-83
2022/03/06 02:13:55;;;;;;;31.27;19.73;;;;;;;1.70;84.24;94839.03;5056201;28;20037;-82
2022/03/06 02:16:21;;;;;;;33.60;19.50;;;;;;;0.88;83.95;94710.13;5037447;28;20097;-83
2022/03/06 02:18:46;;;;;;;30.95;19.40;;;;;;;1.03;83.73;94721.72;5055859;28;20115;-83
2022/03/06 02:21:13;;;;;;;28.63;19.40;;;;;;;0.56;84.42;94670.44;5054799;28;20025;-83
2022/03/06 02:23:40;;;;;;;34.88;20.20;;;;;;;1.76;84.66;94836.31;5054956;28;20047;-82
2022/03/06 02:26:08;;;;;;;33.15;20.83;;;;;;;1.83;83.78;94836.97;5056335;28;20075;-82
2022/03/06 02:28:34;;;;;;;32.42;20.30;;;;;;;1.41;84.01;94780.59;5055984;28;20048;-83
2022/03/06 02:31:01;;;;;;;34.00;20.05;;;;;;;0.92;83.92;94693.78;5038300;28;20053;-82
2022/03/06 02:33:27;;;;;;;30.75;19.38;;;;;;;1.25;83.85;94760.38;5055151;28;20040;-82
2022/03/06 02:35:52;;;;;;;29.67;18.65;;;;;;;1.50;84.17;94790.50;5034056;28;20053;-83
2022/03/06 02:38:19;;;;;;;32.78;18.95;;;;;;;1.27;84.37;94777.41;5035011;28;20064;-82
2022/03/06 02:40:44;;;;;;;26.92;17.52;;;;;;;0.96;84.27;94741.13;5037296;28;20031;-82
2022/03/06 02:43:13;;;;;;;27.58;18.17;;;;;;;1.13;84.22;94783.88;5052387;28;20056;-83
2022/03/06 02:45:40;;;;;;;28.65;17.88;;;;;;;0.88;84.33;94736.22;5035624;28;20393;-83
2022/03/06 02:48:06;;;;;;;27.90;16.30;;;;;;;1.20;84.41;94779.34;5035011;28;20041;-83
2022/03/06 02:50:35;;;;;;;28.13;17.27;;;;;;;1.36;84.17;94791.75;4985982;28;20064;-83
2022/03/06 02:53:04;;;;;;;25.75;16.30;;;;;;;1.17;84.73;94777.97;328224;28;10022863;-83
2022/03/06 02:55:30;;;;;;;26.25;16.73;;;;;;;1.08;84.39;94762.84;5050932;28;20246;-83
2022/03/06 02:57:56;;;;;;;26.50;16.65;;;;;;;1.70;84.33;94844.25;5053400;28;20037;-83
2022/03/06 03:00:24;;;;;;;23.90;15.40;;;;;;;1.24;83.93;94767.41;5034070;28;20040;-84
2022/03/06 03:02:50;;;;;;;24.70;15.40;;;;;;;1.19;84.29;94796.03;5048867;28;20028;-84
2022/03/06 03:05:16;;;;;;;23.20;14.93;;;;;;;-0.79;84.04;94485.06;5034159;28;20565;-84
2022/03/06 03:07:44;;;;;;;20.90;14.25;;;;;;;1.05;83.66;94771.94;5048950;28;20038;-84
2022/03/06 03:10:12;;;;;;;20.27;13.68;;;;;;;0.52;83.50;94698.03;5033725;28;20108;-84
2022/03/06 03:12:37;;;;;;;20.83;14.27;;;;;;;0.64;83.57;94720.50;5032539;28;20038;-84
2022/03/06 03:15:05;;;;;;;23.90;14.40;;;;;;;1.58;83.11;94857.31;5033823;28;20025;-84
2022/03/06 03:17:30;;;;;;;19.45;13.52;;;;;;;0.20;83.76;94669.56;5032857;28;20025;-84
2022/03/06 03:19:56;;;;;;;23.33;13.98;;;;;;;0.98;83.72;94788.72;5049667;28;20519;-84
2022/03/06 03:22:21;;;;;;;23.58;14.32;;;;;;;1.16;83.95;94822.56;5031418;28;20029;-83
2022/03/06 03:24:47;;;;;;;21.65;13.68;;;;;;;1.03;83.79;94800.06;5032605;28;20508;-85
2022/03/06 03:27:12;;;;;;;23.20;15.02;;;;;;;1.02;84.10;94803.69;5032383;28;20427;-84
2022/03/06 03:29:38;;;;;;;23.63;13.98;;;;;;;1.35;84.06;94858.06;5034620;28;20491;-84
2022/03/06 03:32:04;;;;;;;22.58;13.38;;;;;;;0.72;83.74;94769.00;5049947;28;20109;-84
2022/03/06 03:34:29;;;;;;;22.00;14.57;;;;;;;0.75;83.91;94765.94;5038713;28;20135;-84
2022/03/06 03:36:55;;;;;;;20.35;13.43;;;;;;;1.19;84.05;94823.97;5053788;28;20116;-84
2022/03/06 03:39:20;;;;;;;20.38;13.57;;;;;;;1.10;84.59;94839.94;5054523;28;20032;-84
2022/03/06 03:41:46;;;;;;;20.92;13.82;;;;;;;1.24;84.36;94842.34;5053414;28;20056;-84
2022/03/06 03:44:11;;;;;;;23.85;15.02;;;;;;;0.71;84.04;94768.19;5037719;28;20029;-84
2022/03/06 03:46:37;;;;;;;21.90;14.10;;;;;;;0.22;84.80;94729.34;5039540;28;20032;-84
2022/03/06 03:49:03;;;;;;;19.70;13.05;;;;;;;0.84;85.32;94837.69;5057276;28;20053;-84
2022/03/06 03:51:28;;;;;;;22.15;13.85;;;;;;;0.94;85.15;94834.53;5039818;28;20495;-84
2022/03/06 03:53:54;;;;;;;21.20;13.73;;;;;;;0.46;85.39;94758.94;5057718;28;20052;-83
2022/03/06 03:56:21;;;;;;;20.42;13.32;;;;;;;1.22;85.02;94871.31;5040059;28;20119;-83
2022/03/06 03:58:47;;;;;;;20.33;13.02;;;;;;;0.54;85.55;94780.25;5039739;28;20039;-83
2022/03/06 04:01:12;;;;;;;22.58;13.73;;;;;;;0.36;85.57;94780.31;5057796;28;20021;-83
2022/03/06 04:03:37;;;;;;;21.98;13.80;;;;;;;-0.44;85.94;94662.34;5057615;28;20123;-83
2022/03/06 04:06:03;;;;;;;23.20;13.63;;;;;;;0.50;86.10;94794.78;5056044;28;20040;-84
2022/03/06 04:08:29;;;;;;;22.60;14.20;;;;;;;-0.06;85.98;94707.19;5039272;28;20029;-84
2022/03/06 04:10:56;;;;;;;22.35;13.55;;;;;;;-0.09;85.95;94697.22;5057792;28;20040;-84
2022/03/06 04:13:22;;;;;;;24.95;14.82;;;;;;;0.64;85.05;94788.38;5057329;28;20025;-84
2022/03/06 04:15:48;;;;;;;26.38;13.70;;;;;;;0.54;85.52;94808.97;5039524;28;20121;-84
2022/03/06 04:18:13;;;;;;;23.83;13.70;;;;;;;0.44;85.50;94800.88;5057600;28;20037;-84
2022/03/06 04:20:38;;;;;;;20.10;12.00;;;;;;;0.57;86.03;94792.88;5056968;28;20033;-83
2022/03/06 04:23:04;;;;;;;24.73;13.13;;;;;;;1.05;85.97;94886.84;5039022;28;20032;-84
2022/03/06 04:25:29;;;;;;;20.95;12.10;;;;;;;0.58;85.69;94820.56;5057740;28;20033;-85
2022/03/06 04:27:55;;;;;;;20.73;13.35;;;;;;;1.02;85.56;94874.22;5056362;28;20128;-84
2022/03/06 04:30:20;;;;;;;18.30;11.50;;;;;;;0.52;85.44;94784.94;5038928;28;20072;-85
2022/03/06 04:32:46;;;;;;;18.83;12.18;;;;;;;0.38;85.52;94771.22;5058346;28;20036;-85
2022/03/06 04:35:11;;;;;;;19.98;11.23;;;;;;;-1.17;85.10;94506.16;5058370;28;20060;-85
2022/03/06 04:37:37;;;;;;;19.02;11.60;;;;;;;0.75;85.00;94798.06;5041203;28;20052;-85
2022/03/06 04:40:03;;;;;;;15.57;10.52;;;;;;;1.18;84.98;94883.22;5058706;28;20029;-84
2022/03/06 04:42:29;;;;;;;14.45;9.57;;;;;;;1.25;85.01;94878.72;5058923;28;20037;-85
2022/03/06 04:44:54;;;;;;;18.38;9.82;;;;;;;0.64;84.69;94796.19;5058078;28;20029;-85
2022/03/06 04:47:19;;;;;;;14.43;9.85;;;;;;;0.62;85.03;94789.59;5058437;28;20111;-85
2022/03/06 04:49:45;;;;;;;18.70;10.95;;;;;;;-1.26;84.90;94504.84;5027720;28;20474;-85
2022/03/06 04:52:15;;;;;;;16.50;10.40;;;;;;;0.82;85.45;94831.09;1468917;28;10022069;-85
2022/03/06 04:54:40;;;;;;;15.75;10.63;;;;;;;0.69;85.16;94817.19;3997666;28;10001135;-86
2022/03/06 04:57:06;;;;;;;16.45;10.40;;;;;;;0.51;84.90;94780.72;5056758;28;20040;-84
2022/03/06 04:59:31;;;;;;;20.70;11.05;;;;;;;0.83;84.70;94817.03;5040686;28;20174;-84
2022/03/06 05:01:57;;;;;;;17.63;10.88;;;;;;;0.09;84.62;94693.75;5057125;28;20419;-85
2022/03/06 05:04:22;;;;;;;18.48;10.93;;;;;;;-0.22;84.73;94649.66;5055923;28;20041;-85
2022/03/06 05:06:48;;;;;;;16.33;11.23;;;;;;;1.22;84.84;94876.53;5057724;28;20036;-85
2022/03/06 05:09:14;;;;;;;17.83;10.90;;;;;;;0.93;85.27;94861.66;5056952;28;20047;-85
2022/03/06 05:11:39;;;;;;;16.23;10.38;;;;;;;0.25;84.77;94736.69;5056310;28;20116;-85
2022/03/06 05:14:06;;;;;;;16.40;10.65;;;;;;;0.19;84.95;94716.72;5055855;28;20074;-84
2022/03/06 05:16:31;;;;;;;15.95;10.43;;;;;;;-0.01;84.46;94681.28;5057342;28;20036;-84
2022/03/06 05:18:57;;;;;;;14.40;10.25;;;;;;;0.21;84.74;94727.72;5039051;28;20527;-84
2022/03/06 05:21:23;;;;;;;17.75;10.93;;;;;;;1.12;85.04;94882.31;5038812;28;20047;-85
2022/03/06 05:23:49;;;;;;;15.15;9.70;;;;;;;0.53;85.42;94830.06;5055467;28;20041;-85
2022/03/06 05:26:15;;;;;;;17.67;11.55;;;;;;;0.44;85.27;94774.78;5072648;28;20052;-85
2022/03/06 05:28:41;;;;;;;13.93;8.90;;;;;;;1.17;85.11;94892.88;5055292;28;20098;-85
2022/03/06 05:31:07;;;;;;;13.10;8.98;;;;;;;0.44;85.36;94790.44;5056815;28;20061;-85
2022/03/06 05:33:33;;;;;;;13.70;9.40;;;;;;;-1.65;85.18;94456.63;5038510;28;20041;-85
2022/03/06 05:35:58;;;;;;;13.27;9.07;;;;;;;0.31;85.38;94772.31;5038866;28;20515;-85
2022/03/06 05:38:23;;;;;;;13.68;9.13;;;;;;;0.43;85.06;94803.69;5071797;28;20143;-86
2022/03/06 05:40:49;;;;;;;12.57;8.60;;;;;;;0.42;85.19;94786.44;5059070;28;20051;-86
2022/03/06 05:43:14;;;;;;;13.73;9.18;;;;;;;0.20;85.04;94773.06;5071115;28;20040;-86
2022/03/06 05:45:40;;;;;;;13.90;8.50;;;;;;;-0.07;85.78;94723.84;5056849;28;20025;-85
2022/03/06 05:48:05;;;;;;;11.48;7.97;;;;;;;0.94;85.44;94879.72;5051875;28;20044;-85
2022/03/06 05:50:31;;;;;;;13.65;7.57;;;;;;;0.06;85.20;94741.16;5058084;28;20495;-85
2022/03/06 05:52:56;;;;;;;11.93;8.07;;;;;;;-0.83;85.36;94603.66;5072950;28;20123;-85
2022/03/06 05:55:22;;;;;;;10.43;7.13;;;;;;;0.99;85.90;94913.03;5072434;28;20045;-86
2022/03/06 05:57:47;;;;;;;15.85;7.25;;;;;;;0.06;85.87;94748.97;5055952;28;20033;-85
2022/03/06 06:00:16;;;;;;;12.95;8.20;;;;;;;0.26;85.62;94780.03;5056763;28;20067;-85
2022/03/06 06:02:41;;;;;;;12.77;7.97;;;;;;;0.90;86.48;94901.28;5038995;28;20029;-85
2022/03/06 06:05:08;;;;;;;13.63;7.63;;;;;;;1.01;86.06;94914.38;5038367;28;20455;-85
2022/03/06 06:07:34;;;;;;;12.27;7.40;;;;;;;0.91;86.31;94897.66;5072205;28;20120;-86
2022/03/06 06:10:00;;;;;;;10.98;7.32;;;;;;;0.38;85.56;94814.81;5057813;28;20088;-86
2022/03/06 06:12:26;;;;;;;12.60;6.85;;;;;;;1.03;85.53;94908.94;5057271;28;20043;-86
2022/03/06 06:14:52;;;;;;;11.90;6.72;;;;;;;0.16;85.68;94784.94;5072048;28;20049;-86
2022/03/06 06:17:18;;;;;;;11.45;6.80;;;;;;;-1.72;86.16;94500.91;5057234;28;20037;-86
2022/03/06 06:19:44;;;;;;;10.55;6.22;;;;;;;0.57;86.06;94858.13;5056733;28;20460;-86
2022/03/06 06:22:09;;;;;;;9.32;5.93;;;;;;;0.10;85.55;94778.00;5039340;28;20033;-86
2022/03/06 06:24:35;;;;;;;12.18;6.03;;;;;;;-0.04;85.36;94761.72;5039039;28;20052;-85
2022/03/06 06:27:00;;;;;;;9.07;5.85;;;;;;;-1.12;85.05;94562.72;5038976;28;20488;-85
2022/03/06 06:29:26;;;;;;;12.45;5.78;;;;;;;0.75;85.09;94860.72;5054868;28;20036;-85
2022/03/06 06:31:52;;;;;;;9.02;5.93;;;;;;;0.27;84.80;94811.09;5056784;28;20109;-86
2022/03/06 06:34:18;;;;;;;12.65;5.82;;;;;;;-0.95;84.57;94589.78;5038479;28;20083;-86
2022/03/06 06:36:44;;;;;;;8.38;5.57;;;;;;;0.17;84.51;94773.50;5056744;28;20041;-86
2022/03/06 06:39:10;;;;;;;7.43;5.78;;;;;;;-0.06;84.48;94759.31;5038355;28;20033;-86
2022/03/06 06:41:40;;;;;;;11.48;5.57;;;;;;;-1.81;84.20;94499.56;5056583;28;20055;-86
2022/03/06 06:44:06;;;;;;;11.13;5.57;;;;;;;1.00;84.37;94917.22;5038415;28;20053;-85
2022/03/06 06:46:33;;;;;;;10.82;5.78;;;;;;;0.69;84.65;94897.31;5056176;28;20037;-86
2022/03/06 06:48:59;;;;;;;10.68;6.00;;;;;;;-0.91;84.51;94609.94;5039344;28;20052;-85
2022/03/06 06:51:36;;;;;;;13.02;6.02;;;;;;;0.16;84.87;94804.00;3407666;28;10021426;-85
2022/03/06 06:54:02;;;;;;;9.85;5.60;;;;;;;0.80;84.78;94901.00;2268584;28;10001977;-85
2022/03/06 06:56:27;;;;;;;12.63;6.15;;;;;;;0.88;85.27;94924.19;5075052;28;20414;-85
2022/03/06 06:58:52;;;;;;;11.80;6.07;;;;;;;-0.42;85.22;94715.03;5074571;28;20028;-85
2022/03/06 07:01:18;;;;;;;11.93;6.43;;;;;;;0.21;85.06;94808.56;5057742;28;20028;-85
2022/03/06 07:03:44;;;;;;;16.02;7.95;;;;;;;0.89;85.34;94923.19;5076317;28;20033;-85
2022/03/06 07:06:10;;;;;;;12.70;6.15;;;;;;;0.37;85.45;94837.47;5077008;28;20033;-85
2022/03/06 07:08:35;;;;;;;11.00;6.05;;;;;;;0.19;85.31;94811.41;5058464;28;20028;-85
2022/03/06 07:11:01;;;;;;;12.55;5.70;;;;;;;0.54;85.08;94889.84;5074239;28;20120;-85
2022/03/06 07:13:26;;;;;;;14.35;6.13;;;;;;;-0.10;85.11;94765.19;5074494;28;20419;-85
2022/03/06 07:15:51;;;;;;;11.32;5.93;;;;;;;0.25;85.30;94818.34;5076905;28;20047;-85
2022/03/06 07:18:17;;;;;;;10.18;5.45;;;;;;;0.25;84.75;94809.72;5075079;28;20036;-85
2022/03/06 07:20:42;;;;;;;14.25;5.68;;;;;;;0.66;84.97;94871.66;5061024;28;20029;-84
2022/03/06 07:23:08;;;;;;;11.25;5.72;;;;;;;0.15;85.21;94791.19;5061084;28;20021;-84
2022/03/06 07:25:34;;;;;;;10.63;5.93;;;;;;;-0.19;85.42;94741.22;5078289;28;20510;-84
2022/03/06 07:27:59;;;;;;;10.68;5.88;;;;;;;-0.33;85.48;94731.16;5060962;28;20509;-85
2022/03/06 07:30:25;;;;;;;10.82;6.10;;;;;;;-1.43;85.00;94555.81;5061160;28;20036;-85
2022/03/06 07:32:51;;;;;;;10.48;6.35;;;;;;;0.78;84.89;94898.59;5078672;28;20060;-85
2022/03/06 07:35:19;;;;;;;12.55;6.45;;;;;;;1.06;85.14;94918.97;5060704;28;20112;-85
2022/03/06 07:37:45;;;;;;;11.60;7.57;;;;;;;1.11;84.96;94919.09;5079413;28;20028;-85
2022/03/06 07:40:13;;;;;;;13.25;6.90;;;;;;;1.00;84.68;94932.88;5078112;28;20522;-85
2022/03/06 07:42:39;;;;;;;14.57;6.85;;;;;;;0.91;85.14;94905.50;5060508;28;20033;-85
2022/03/06 07:45:06;;;;;;;11.50;7.38;;;;;;;1.16;84.87;94927.84;5077635;28;20028;-85
2022/03/06 07:47:32;;;;;;;9.38;5.85;;;;;;;-0.30;84.72;94700.25;5078694;28;20044;-85
2022/03/06 07:49:57;;;;;;;14.93;6.25;;;;;;;1.03;84.63;94898.50;5060640;28;20502;-85
2022/03/06 07:52:23;;;;;;;12.05;6.40;;;;;;;0.82;84.97;94872.88;5060504;28;20032;-85
2022/03/06 07:54:48;;;;;;;11.52;6.55;;;;;;;1.05;84.50;94918.16;5060364;28;20033;-85
2022/03/06 07:57:14;;;;;;;11.40;6.90;;;;;;;0.84;84.46;94882.06;5079132;28;20040;-85
2022/03/06 07:59:39;;;;;;;10.30;6.63;;;;;;;0.78;84.39;94886.34;5077713;28;20029;-85
2022/03/06 08:02:05;;;;;;;10.20;6.63;;;;;;;0.05;84.11;94739.56;5061370;28;20077;-85
2022/03/06 08:04:30;;;;;;;11.48;6.60;;;;;;;0.77;84.43;94871.72;5060606;28;20111;-85
2022/03/06 08:06:56;;;;;;;12.25;7.38;;;;;;;1.44;84.35;94948.19;5078944;28;20032;-85
2022/03/06 08:09:24;;;;;;;12.38;7.13;;;;;;;0.17;84.61;94755.25;5060583;28;20033;-85
2022/03/06 08:11:50;;;;;;;11.85;7.22;;;;;;;1.52;84.27;94937.44;5078687;28;20508;-85
2022/03/06 08:14:16;;;;;;;12.85;7.47;;;;;;;0.71;84.30;94822.19;5078160;28;20032;-85
2022/03/06 08:16:41;;;;;;;12.48;8.27;;;;;;;0.81;84.64;94850.41;5059512;28;20487;-85
2022/03/06 08:19:07;;;;;;;11.90;7.47;;;;;;;0.39;84.31;94772.81;5078440;28;20138;-84
2022/03/06 08:21:32;;;;;;;13.07;8.35;;;;;;;0.32;84.71;94816.44;5060028;28;20414;-85
2022/03/06 08:23:58;;;;;;;17.45;9.07;;;;;;;0.35;84.70;94795.16;5060394;28;20068;-85
2022/03/06 08:26:23;;;;;;;12.90;8.40;;;;;;;0.51;84.30;94838.13;5076887;28;20032;-85
2022/03/06 08:28:49;;;;;;;13.63;8.25;;;;;;;1.01;85.05;94887.47;5059735;28;20036;-84
2022/03/06 08:31:15;;;;;;;20.60;10.52;;;;;;;0.38;84.68;94760.78;5076661;28;20036;-84
2022/03/06 08:33:40;;;;;;;15.18;9.32;;;;;;;1.25;84.27;94912.66;5059683;28;20123;-85
2022/03/06 08:36:06;;;;;;;21.58;10.93;;;;;;;0.65;83.26;94812.66;5075873;28;20041;-84
2022/03/06 08:38:31;;;;;;;21.23;11.23;;;;;;;0.80;84.06;94847.00;5077934;28;20040;-84
2022/03/06 08:40:57;;;;;;;16.55;9.85;;;;;;;0.30;83.96;94758.50;5078606;28;20105;-84
2022/03/06 08:43:22;;;;;;;19.45;9.00;;;;;;;1.53;84.14;94935.59;5078007;28;20029;-84
2022/03/06 08:45:48;;;;;;;14.23;8.23;;;;;;;1.61;83.07;94924.81;5077416;28;20048;-85
2022/03/06 08:48:13;;;;;;;12.05;7.25;;;;;;;0.96;83.48;94848.19;5077973;28;20033;-85
2022/03/06 08:50:51;;;;;;;11.73;6.36;;;;;;;0.34;82.92;94749.22;4923077;28;10001035;-85
2022/03/06 08:53:17;;;;;;;10.82;6.57;;;;;;;1.26;83.13;94864.63;698630;28;10002010;-85
2022/03/06 08:55:43;;;;;;;12.65;6.38;;;;;;;1.02;83.82;94852.50;5077834;28;20032;-85
2022/03/06 08:58:09;;;;;;;14.70;7.00;;;;;;;0.83;83.39;94806.59;5059346;28;20028;-85
2022/03/06 09:00:34;;;;;;;12.10;7.15;;;;;;;1.15;83.69;94840.06;5078642;28;20048;-83
2022/03/06 09:03:00;;;;;;;13.85;7.65;;;;;;;0.99;83.51;94814.56;5077842;28;20091;-84
2022/03/06 09:05:25;;;;;;;19.67;8.93;;;;;;;1.64;83.77;94913.94;5059897;28;20040;-84
2022/03/06 09:07:51;;;;;;;18.80;8.75;;;;;;;1.12;83.81;94830.06;5059626;28;20044;-84
2022/03/06 09:10:16;;;;;;;15.27;10.75;;;;;;;1.88;84.49;94917.38;5077188;28;20047;-84
2022/03/06 09:12:42;;;;;;;18.67;11.00;;;;;;;1.08;85.30;94815.84;5075542;28;20123;-84
2022/03/06 09:15:08;;;;;;;19.95;11.70;;;;;;;1.96;85.19;94917.06;5076097;28;20566;-84
2022/03/06 09:17:34;;;;;;;15.73;9.88;;;;;;;1.96;84.32;94919.66;5075934;28;20480;-84
2022/03/06 09:19:59;;;;;;;19.63;10.27;;;;;;;0.76;85.43;94733.59;5077977;28;20036;-84
2022/03/06 09:22:25;;;;;;;13.52;9.15;;;;;;;1.94;84.55;94913.84;5058879;28;20029;-85
2022/03/06 09:24:50;;;;;;;11.25;7.82;;;;;;;1.85;83.87;94889.84;5076766;28;20522;-83
2022/03/06 09:27:16;;;;;;;10.73;6.82;;;;;;;1.34;84.12;94838.19;5077315;28;20032;-83
2022/03/06 09:29:41;;;;;;;11.85;6.85;;;;;;;1.59;83.99;94884.25;5077274;28;20402;-83
2022/03/06 09:32:07;;;;;;;9.55;6.28;;;;;;;1.75;84.60;94899.28;5058423;28;20033;-84
2022/03/06 09:34:33;;;;;;;14.40;6.15;;;;;;;1.12;84.16;94817.03;5057498;28;20060;-83
2022/03/06 09:36:58;;;;;;;8.93;5.97;;;;;;;1.38;84.63;94841.94;5076577;28;20043;-83
2022/03/06 09:39:24;;;;;;;10.10;5.72;;;;;;;0.76;83.70;94726.53;5074908;28;20046;-83
2022/03/06 09:41:53;;;;;;;6.43;4.75;;;;;;;1.38;83.35;94825.47;5074973;28;20024;-83
2022/03/06 09:44:22;;;;;;;7.43;5.25;;;;;;;1.48;82.74;94849.22;5057749;28;20048;-84
2022/03/06 09:46:48;;;;;;;6.47;4.60;;;;;;;1.76;82.89;94875.50;5057635;28;20036;-83
2022/03/06 09:49:14;;;;;;;8.05;5.30;;;;;;;1.14;83.62;94814.97;5057451;28;20032;-84
2022/03/06 09:51:41;;;;;;;7.13;4.75;;;;;;;1.94;83.38;94932.97;5076643;28;20033;-84
2022/03/06 09:54:08;;;;;;;6.35;4.22;;;;;;;1.37;83.39;94853.44;5074550;28;20048;-83
2022/03/06 09:56:35;;;;;;;9.73;5.85;;;;;;;1.81;83.42;94922.72;5055953;28;20131;-83
2022/03/06 09:59:01;;;;;;;8.27;5.50;;;;;;;1.81;83.56;94899.19;5072961;28;20428;-83
2022/03/06 10:01:26;;;;;;;9.20;6.18;;;;;;;1.13;83.43;94804.75;5074236;28;20530;-83
2022/03/06 10:03:52;;;;;;;11.50;6.47;;;;;;;1.93;83.53;94935.81;5075374;28;20036;-83
2022/03/06 10:06:17;;;;;;;13.82;6.78;;;;;;;0.13;83.80;94665.47;5073586;28;20562;-84
2022/03/06 10:08:43;;;;;;;11.98;7.03;;;;;;;1.49;83.62;94900.47;5057781;28;20044;-84
2022/03/06 10:11:12;;;;;;;10.93;7.07;;;;;;;1.25;82.96;94867.47;5057293;28;20032;-85
2022/03/06 10:13:46;;;;;;;12.18;6.15;;;;;;;1.67;82.94;94929.19;5075071;28;20087;-84
2022/03/06 10:16:19;;;;;;;12.52;6.93;;;;;;;1.16;82.01;94859.16;5073493;28;20041;-84
2022/03/06 10:18:50;;;;;;;14.10;7.75;;;;;;;1.55;82.05;94920.50;5073954;28;20047;-83
2022/03/06 10:21:24;;;;;;;9.85;6.80;;;;;;;0.39;81.01;94754.56;5073239;28;20036;-84
2022/03/06 10:23:53;;;;;;;9.95;5.53;;;;;;;0.86;79.92;94846.09;5074035;28;20104;-84
2022/03/06 10:26:21;;;;;;;10.00;6.30;;;;;;;1.58;80.59;94937.56;5074549;28;20542;-83
2022/03/06 10:28:49;;;;;;;7.65;5.30;;;;;;;1.62;80.04;94933.47;5056707;28;20036;-83
2022/03/06 10:31:16;;;;;;;7.07;5.55;;;;;;;1.21;80.20;94876.78;5074982;28;20549;-83
2022/03/06 10:33:54;;;;;;;7.55;6.05;;;;;;;0.31;80.94;94741.81;5074929;28;20135;-83
2022/03/06 10:36:32;;;;;;;7.85;5.85;;;;;;;1.43;81.13;94909.22;5056633;28;20537;-84
2022/03/06 10:38:58;;;;;;;12.38;5.30;;;;;;;0.77;80.18;94801.22;5056967;28;20044;-83
2022/03/06 10:41:34;;;;;;;9.15;6.18;;;;;;;1.54;81.42;94935.38;5057378;28;20024;-83
2022/03/06 10:44:00;;;;;;;10.65;6.35;;;;;;;1.60;81.08;94938.94;5075048;28;20040;-84
2022/03/06 10:46:26;;;;;;;11.55;6.60;;;;;;;1.32;81.56;94862.94;5075311;28;20407;-84
2022/03/06 10:48:57;;;;;;;11.18;7.25;;;;;;;1.02;81.25;94816.75;5056928;28;20040;-84
2022/03/06 10:51:48;;;;;;;9.20;5.60;;;;;;;1.75;82.22;94917.59;3087934;28;10001810;-84
2022/03/06 10:54:15;;;;;;;10.00;6.88;;;;;;;1.67;82.11;94895.19;3659479;28;10001371;-83
2022/03/06 10:56:43;;;;;;;12.15;6.20;;;;;;;0.68;81.32;94746.97;5058788;28;20419;-83
2022/03/06 10:59:09;;;;;;;9.25;5.88;;;;;;;1.16;81.23;94819.97;5059135;28;20502;-84
2022/03/06 11:01:36;;;;;;;9.95;7.22;;;;;;;1.91;81.21;94906.44;5040682;28;20037;-83
2022/03/06 11:04:04;;;;;;;15.43;6.10;;;;;;;1.65;81.73;94888.59;5058666;28;20052;-83
2022/03/06 11:06:37;;;;;;;10.02;5.72;;;;;;;0.95;82.82;94834.34;5059028;28;20041;-83
2022/03/06 11:09:03;;;;;;;10.18;6.05;;;;;;;1.04;82.65;94829.59;5040483;28;20086;-83
2022/03/06 11:11:30;;;;;;;11.85;6.28;;;;;;;1.22;82.97;94866.09;5040058;28;20499;-84
2022/03/06 11:13:56;;;;;;;11.40;5.60;;;;;;;1.43;83.22;94899.56;5057385;28;20033;-84
2022/03/06 11:16:22;;;;;;;8.45;5.97;;;;;;;1.47;83.38;94926.84;5058745;28;20169;-83
2022/03/06 11:18:48;;;;;;;12.80;7.38;;;;;;;0.84;83.29;94839.53;5058829;28;20063;-84
2022/03/06 11:21:14;;;;;;;11.50;6.88;;;;;;;0.78;84.52;94867.28;5059290;28;20100;-84
2022/03/06 11:23:46;;;;;;;13.02;6.50;;;;;;;1.39;84.23;94934.19;5057507;28;20094;-83
2022/03/06 11:26:12;;;;;;;10.70;6.32;;;;;;;1.19;84.42;94933.66;5056566;28;20555;-84